createdAt,value
2019-03-18T00:02:10.819Z,16.82
2019-03-18T00:05:16.668Z,16.76
2019-03-18T00:08:22.407Z,16.75
2019-03-18T00:11:28.198Z,16.58
2019-03-18T00:14:33.923Z,16.72
2019-03-18T00:17:39.721Z,16.87
2019-03-18T00:20:45.506Z,16.70
2019-03-18T00:23:51.345Z,16.81
2019-03-18T00:26:57.236Z,16.78
2019-03-18T00:30:03.087Z,16.36
2019-03-18T00:33:09.179Z,16.60
2019-03-18T00:36:14.897Z,16.43
2019-03-18T00:39:20.643Z,16.61
2019-03-18T00:42:26.638Z,16.53
2019-03-18T00:45:32.382Z,16.45
2019-03-18T00:48:38.182Z,16.10
2019-03-18T00:51:43.988Z,16.03
2019-03-18T00:54:49.945Z,16.14
2019-03-18T00:57:55.848Z,16.15
2019-03-18T01:01:01.595Z,16.21
2019-03-18T01:04:07.453Z,16.56
2019-03-18T01:07:13.279Z,16.32
2019-03-18T01:10:20.095Z,16.49
2019-03-18T01:13:25.899Z,16.76
2019-03-18T01:16:32.701Z,16.45
2019-03-18T01:19:38.430Z,16.45
2019-03-18T01:22:44.180Z,16.47
2019-03-18T01:25:51.065Z,16.57
2019-03-18T01:28:56.766Z,16.18
2019-03-18T01:32:02.591Z,16.13
2019-03-18T01:35:09.114Z,16.10
2019-03-18T01:38:14.932Z,16.19
2019-03-18T01:41:20.694Z,16.23
2019-03-18T01:44:26.466Z,15.94
2019-03-18T01:47:32.310Z,15.79
2019-03-18T01:50:38.095Z,16.23
2019-03-18T01:53:43.929Z,16.43
2019-03-18T01:56:49.703Z,16.40
2019-03-18T01:59:55.494Z,16.58
2019-03-18T02:03:01.222Z,16.47
2019-03-18T02:06:07.012Z,16.42
2019-03-18T02:09:12.732Z,16.36
2019-03-18T02:12:18.519Z,16.12
2019-03-18T02:15:24.238Z,16.01
2019-03-18T02:18:29.962Z,15.80
2019-03-18T02:21:35.721Z,15.83
2019-03-18T02:24:41.505Z,15.69
2019-03-18T02:27:47.253Z,15.08
2019-03-18T02:30:53.043Z,15.15
2019-03-18T02:33:58.876Z,15.41
2019-03-18T02:37:04.617Z,15.53
2019-03-18T02:40:11.683Z,14.56
2019-03-18T02:43:17.700Z,15.27
2019-03-18T02:46:24.521Z,15.26
2019-03-18T02:49:30.264Z,15.21
2019-03-18T02:52:36.005Z,15.43
2019-03-18T02:55:41.732Z,15.48
2019-03-18T02:58:47.683Z,15.28
2019-03-18T03:01:53.422Z,15.32
2019-03-18T03:04:59.273Z,15.31
2019-03-18T03:08:05.409Z,15.09
2019-03-18T03:11:11.118Z,15.39
2019-03-18T03:14:16.902Z,14.87
2019-03-18T03:17:22.648Z,15.26
2019-03-18T03:20:28.522Z,15.22
2019-03-18T03:23:34.259Z,15.08
2019-03-18T03:26:40.064Z,15.20
2019-03-18T03:29:45.883Z,15.03
2019-03-18T03:32:51.782Z,14.59
2019-03-18T03:35:57.671Z,14.47
2019-03-18T03:39:04.478Z,14.05
2019-03-18T03:42:10.390Z,13.52
2019-03-18T03:45:16.346Z,14.15
2019-03-18T03:48:22.053Z,14.80
2019-03-18T03:51:27.902Z,15.01
2019-03-18T03:54:33.872Z,15.09
2019-03-18T03:57:40.354Z,15.12
2019-03-18T04:00:46.329Z,15.13
2019-03-18T04:03:52.317Z,15.20
2019-03-18T04:06:58.253Z,15.12
2019-03-18T04:10:04.457Z,15.06
2019-03-18T04:13:10.188Z,15.11
2019-03-18T04:16:18.834Z,14.81
2019-03-18T04:19:25.603Z,14.23
2019-03-18T04:22:31.432Z,13.84
2019-03-18T04:25:37.201Z,14.24
2019-03-18T04:28:43.118Z,14.10
2019-03-18T04:31:48.867Z,14.51
2019-03-18T04:34:55.639Z,14.64
2019-03-18T04:38:01.479Z,14.79
2019-03-18T04:41:07.255Z,14.75
2019-03-18T04:44:13.047Z,14.82
2019-03-18T04:47:18.856Z,14.85
2019-03-18T04:50:24.678Z,14.75
2019-03-18T04:53:30.399Z,14.61
2019-03-18T04:56:36.186Z,14.35
2019-03-18T04:59:41.955Z,14.33
2019-03-18T05:02:47.844Z,14.37
2019-03-18T05:05:53.611Z,14.34
2019-03-18T05:08:59.498Z,14.40
2019-03-18T05:12:05.365Z,14.40
2019-03-18T05:15:11.484Z,14.58
2019-03-18T05:18:18.860Z,14.47
2019-03-18T05:21:24.562Z,14.29
2019-03-18T05:24:30.667Z,14.36
2019-03-18T05:27:38.875Z,13.96
2019-03-18T05:30:44.634Z,13.58
2019-03-18T05:33:53.163Z,14.35
2019-03-18T05:37:03.501Z,14.21
2019-03-18T05:40:09.600Z,14.27
2019-03-18T05:43:16.547Z,13.96
2019-03-18T05:46:22.385Z,13.06
2019-03-18T05:49:28.198Z,14.29
2019-03-18T05:52:40.500Z,14.26
2019-03-18T05:55:51.598Z,14.73
2019-03-18T05:59:08.445Z,15.06
2019-03-18T06:05:36.421Z,13.94
2019-03-18T06:08:48.233Z,14.33
2019-03-18T06:11:55.773Z,15.03
2019-03-18T06:15:01.539Z,14.98
2019-03-18T06:18:07.465Z,15.44
2019-03-18T06:21:15.772Z,16.11
2019-03-18T06:24:39.153Z,16.52
2019-03-18T06:27:52.924Z,16.72
2019-03-18T06:31:17.770Z,17.02
2019-03-18T06:34:21.426Z,17.11
2019-03-18T06:37:27.190Z,17.73
2019-03-18T06:40:32.989Z,17.94
2019-03-18T06:43:41.264Z,18.04
2019-03-18T06:46:58.723Z,18.61
2019-03-18T06:50:04.581Z,18.82
2019-03-18T06:53:10.341Z,19.01
2019-03-18T06:56:16.281Z,18.97
2019-03-18T06:59:22.062Z,19.28
2019-03-18T07:02:27.940Z,19.45
2019-03-18T07:05:33.841Z,19.50
2019-03-18T07:08:39.708Z,20.10
2019-03-18T07:11:45.565Z,20.40
2019-03-18T07:14:51.350Z,20.33
2019-03-18T07:17:57.100Z,20.33
2019-03-18T07:21:02.850Z,20.70
2019-03-18T07:24:08.680Z,20.89
2019-03-18T07:27:14.504Z,21.12
2019-03-18T07:30:20.340Z,21.43
2019-03-18T07:33:26.139Z,20.64
2019-03-18T07:36:31.923Z,20.70
2019-03-18T07:39:37.697Z,21.26
2019-03-18T07:42:44.676Z,21.61
2019-03-18T07:45:50.577Z,21.52
2019-03-18T07:48:56.384Z,21.79
2019-03-18T07:52:02.164Z,21.34
2019-03-18T07:55:08.164Z,21.96
2019-03-18T07:58:13.976Z,22.03
2019-03-18T08:01:22.088Z,22.48
2019-03-18T08:04:36.840Z,22.23
2019-03-18T08:07:38.475Z,22.44
2019-03-18T08:10:47.376Z,22.23
2019-03-18T08:13:53.230Z,21.34
2019-03-18T08:16:59.042Z,22.07
2019-03-18T08:20:09.752Z,22.32
2019-03-18T08:23:16.921Z,22.41
2019-03-18T08:26:22.597Z,22.39
2019-03-18T08:29:30.735Z,23.04
2019-03-18T08:32:36.501Z,23.20
2019-03-18T08:35:42.331Z,23.10
2019-03-18T08:38:48.105Z,23.44
2019-03-18T08:41:53.833Z,23.40
2019-03-18T08:44:59.562Z,23.54
2019-03-18T08:48:05.409Z,23.87
2019-03-18T08:51:11.303Z,23.71
2019-03-18T08:54:17.165Z,23.81
2019-03-18T08:57:23.055Z,23.80
2019-03-18T09:00:28.954Z,23.87
2019-03-18T09:03:37.390Z,23.83
2019-03-18T09:06:43.356Z,23.90
2019-03-18T09:09:50.181Z,23.96
2019-03-18T09:12:55.929Z,23.92
2019-03-18T09:16:01.919Z,24.47
2019-03-18T09:19:09.173Z,24.37
2019-03-18T09:22:15.147Z,24.68
2019-03-18T09:25:20.942Z,24.73
2019-03-18T09:28:26.703Z,24.80
2019-03-18T09:31:32.528Z,24.75
2019-03-18T09:34:38.466Z,24.91
2019-03-18T09:37:45.523Z,25.18
2019-03-18T09:40:51.445Z,24.71
2019-03-18T09:43:57.335Z,24.65
2019-03-18T09:47:03.109Z,24.89
2019-03-18T09:50:09.569Z,24.80
2019-03-18T09:53:15.674Z,24.90
2019-03-18T09:56:23.090Z,25.19
2019-03-18T09:59:28.958Z,24.84
2019-03-18T10:02:34.692Z,25.41
2019-03-18T10:05:43.871Z,25.64
2019-03-18T10:08:49.180Z,25.98
2019-03-18T10:11:54.958Z,25.67
2019-03-18T10:15:00.714Z,25.74
2019-03-18T10:18:07.868Z,25.43
2019-03-18T10:21:13.734Z,24.98
2019-03-18T10:24:19.687Z,23.96
2019-03-18T10:27:25.497Z,24.69
2019-03-18T10:30:33.869Z,25.04
2019-03-18T10:33:39.082Z,25.69
2019-03-18T10:36:44.840Z,25.71
2019-03-18T10:39:50.612Z,26.21
2019-03-18T10:42:56.452Z,26.03
2019-03-18T10:46:02.195Z,25.89
2019-03-18T10:49:08.021Z,25.35
2019-03-18T10:52:13.762Z,25.31
2019-03-18T10:55:19.742Z,25.65
2019-03-18T10:58:25.489Z,26.25
2019-03-18T11:01:31.240Z,25.88
2019-03-18T11:04:37.063Z,24.91
2019-03-18T11:07:42.813Z,25.34
2019-03-18T11:10:48.611Z,25.71
2019-03-18T11:13:54.346Z,25.72
2019-03-18T11:17:00.106Z,25.69
2019-03-18T11:20:06.753Z,26.00
2019-03-18T11:23:12.754Z,25.71
2019-03-18T11:26:18.581Z,26.00
2019-03-18T11:29:24.412Z,26.06
2019-03-18T11:32:30.273Z,26.05
2019-03-18T11:35:36.110Z,24.58
2019-03-18T11:38:41.887Z,25.52
2019-03-18T11:41:47.836Z,25.61
2019-03-18T11:44:53.550Z,25.73
2019-03-18T11:47:59.481Z,25.86
2019-03-18T11:51:05.441Z,26.05
2019-03-18T11:54:11.448Z,26.22
2019-03-18T11:57:17.256Z,25.74
2019-03-18T12:00:23.271Z,26.25
2019-03-18T12:03:29.148Z,26.16
2019-03-18T12:06:34.920Z,26.49
2019-03-18T12:09:40.661Z,26.69
2019-03-18T12:12:46.513Z,26.80
2019-03-18T12:15:52.374Z,25.89
2019-03-18T12:18:58.095Z,26.09
2019-03-18T12:22:03.975Z,26.30
2019-03-18T12:25:10.099Z,26.32
2019-03-18T12:28:17.075Z,25.84
2019-03-18T12:31:22.828Z,26.46
2019-03-18T12:34:28.583Z,26.29
2019-03-18T12:37:34.430Z,26.32
2019-03-18T12:40:40.372Z,26.18
2019-03-18T12:43:46.124Z,26.46
2019-03-18T12:47:19.759Z,26.63
2019-03-18T12:50:43.197Z,26.54
2019-03-18T12:53:33.315Z,26.50
2019-03-18T12:56:39.236Z,26.49
2019-03-18T12:59:48.040Z,26.34
2019-03-18T13:02:54.003Z,26.31
2019-03-18T13:05:59.776Z,26.69
2019-03-18T13:09:08.682Z,26.41
2019-03-18T13:12:15.117Z,26.24
2019-03-18T13:15:24.082Z,26.46
2019-03-18T13:18:29.970Z,26.32
2019-03-18T13:21:35.754Z,26.62
2019-03-18T13:24:41.498Z,26.68
2019-03-18T13:27:47.226Z,26.49
2019-03-18T13:30:53.193Z,26.47
2019-03-18T13:34:04.721Z,26.34
2019-03-18T13:37:10.403Z,26.60
2019-03-18T13:40:16.393Z,26.60
2019-03-18T13:43:22.084Z,26.40
2019-03-18T13:46:27.872Z,26.63
2019-03-18T13:49:33.663Z,26.54
2019-03-18T13:52:39.545Z,26.74
2019-03-18T13:55:45.408Z,26.78
2019-03-18T13:58:51.132Z,26.52
2019-03-18T14:01:56.869Z,26.37
2019-03-18T14:05:02.838Z,26.50
2019-03-18T14:08:10.192Z,26.61
2019-03-18T14:11:16.106Z,26.53
2019-03-18T14:14:22.146Z,26.80
2019-03-18T14:17:27.955Z,26.69
2019-03-18T14:20:33.790Z,26.74
2019-03-18T14:23:39.561Z,26.54
2019-03-18T14:26:48.088Z,26.56
2019-03-18T14:29:53.821Z,26.64
2019-03-18T14:33:02.925Z,26.62
2019-03-18T14:36:08.744Z,26.69
2019-03-18T14:39:14.595Z,26.85
2019-03-18T14:42:20.380Z,26.66
2019-03-18T14:45:29.245Z,26.44
2019-03-18T14:48:40.947Z,26.71
2019-03-18T14:51:46.702Z,26.41
2019-03-18T14:54:52.545Z,26.16
2019-03-18T14:57:58.448Z,26.21
2019-03-18T15:01:07.650Z,26.40
2019-03-18T15:04:13.555Z,26.11
2019-03-18T15:07:19.375Z,25.92
2019-03-18T15:10:25.182Z,26.06
2019-03-18T15:13:31.442Z,25.94
2019-03-18T15:16:37.383Z,25.78
2019-03-18T15:19:44.007Z,25.77
2019-03-18T15:23:16.089Z,25.60
2019-03-18T15:26:07.249Z,25.86
2019-03-18T15:29:12.991Z,25.52
2019-03-18T15:32:18.772Z,25.35
2019-03-18T15:35:27.640Z,25.44
2019-03-18T15:38:33.597Z,25.52
2019-03-18T15:41:39.357Z,24.99
2019-03-18T15:44:45.132Z,25.05
2019-03-18T15:47:50.863Z,24.89
2019-03-18T15:50:56.578Z,24.96
2019-03-18T15:54:02.311Z,24.79
2019-03-18T15:57:08.076Z,24.80
2019-03-18T16:00:16.990Z,24.53
2019-03-18T16:03:30.324Z,24.34
2019-03-18T16:06:43.275Z,24.19
2019-03-18T16:09:49.070Z,23.97
2019-03-18T16:12:56.034Z,23.79
2019-03-18T16:16:01.966Z,23.78
2019-03-18T16:19:12.051Z,23.74
2019-03-18T16:22:23.508Z,23.53
2019-03-18T16:25:25.495Z,23.38
2019-03-18T16:28:31.290Z,23.26
2019-03-18T16:31:37.020Z,23.11
2019-03-18T16:34:42.903Z,22.97
2019-03-18T16:37:51.311Z,22.93
2019-03-18T16:40:57.074Z,22.79
2019-03-18T16:44:02.789Z,22.63
2019-03-18T16:47:08.571Z,22.62
2019-03-18T16:50:15.502Z,22.45
2019-03-18T16:53:22.239Z,22.59
2019-03-18T16:56:28.006Z,22.51
2019-03-18T16:59:33.955Z,22.45
2019-03-18T17:02:39.696Z,22.34
2019-03-18T17:05:45.444Z,22.19
2019-03-18T17:08:51.186Z,22.19
2019-03-18T17:11:57.051Z,22.14
2019-03-18T17:15:02.819Z,22.14
2019-03-18T17:18:08.967Z,22.20
2019-03-18T17:21:14.754Z,22.13
2019-03-18T17:24:20.621Z,22.03
2019-03-18T17:27:26.617Z,21.94
2019-03-18T17:30:32.368Z,21.94
2019-03-18T17:33:38.220Z,21.69
2019-03-18T17:36:45.829Z,21.69
2019-03-18T17:39:52.961Z,21.59
2019-03-18T17:42:58.856Z,21.41
2019-03-18T17:46:04.958Z,21.32
2019-03-18T17:49:17.970Z,21.03
2019-03-18T17:52:23.717Z,21.03
2019-03-18T17:55:29.804Z,21.09
2019-03-18T17:58:36.793Z,21.08
2019-03-18T18:01:42.597Z,21.03
2019-03-18T18:04:48.353Z,20.85
2019-03-18T18:07:54.149Z,20.73
2019-03-18T18:11:00.035Z,20.60
2019-03-18T18:14:06.107Z,20.46
2019-03-18T18:17:12.103Z,20.34
2019-03-18T18:20:19.231Z,20.13
2019-03-18T18:23:25.059Z,20.12
2019-03-18T18:26:30.955Z,20.21
2019-03-18T18:29:36.802Z,20.12
2019-03-18T18:32:43.065Z,19.99
2019-03-18T18:35:52.317Z,19.88
2019-03-18T18:38:59.551Z,19.73
2019-03-18T18:42:05.478Z,19.54
2019-03-18T18:45:12.582Z,19.75
2019-03-18T18:48:22.142Z,19.85
2019-03-18T18:51:27.928Z,19.44
2019-03-18T18:54:35.863Z,19.57
2019-03-18T18:57:41.718Z,19.43
2019-03-18T19:00:47.466Z,19.35
2019-03-18T19:03:53.249Z,18.98
2019-03-18T19:06:59.001Z,18.91
2019-03-18T19:10:05.297Z,18.85
2019-03-18T19:13:11.061Z,19.17
2019-03-18T19:16:16.931Z,19.15
2019-03-18T19:19:22.743Z,19.07
2019-03-18T19:22:28.651Z,18.98
2019-03-18T19:25:34.457Z,18.92
2019-03-18T19:28:40.249Z,18.91
2019-03-18T19:32:13.609Z,18.98
2019-03-18T19:35:44.453Z,18.84
2019-03-18T19:38:45.593Z,18.95
2019-03-18T19:41:51.317Z,18.88
2019-03-18T19:49:21.535Z,18.81
2019-03-18T19:52:40.265Z,18.60
2019-03-18T19:55:46.085Z,18.60
2019-03-18T19:58:52.044Z,18.62
2019-03-18T20:01:57.795Z,18.68
2019-03-18T20:05:14.379Z,18.66
2019-03-18T20:08:11.031Z,18.68
2019-03-18T20:11:16.755Z,18.64
2019-03-18T20:14:22.646Z,18.58
2019-03-18T20:17:28.484Z,18.61
2019-03-18T20:20:34.235Z,18.32
2019-03-18T20:23:40.028Z,18.33
2019-03-18T20:26:45.832Z,18.33
2019-03-18T20:29:51.565Z,18.66
2019-03-18T20:32:57.595Z,18.62
2019-03-18T20:36:03.408Z,18.68
2019-03-18T20:39:09.405Z,18.68
2019-03-18T20:42:15.118Z,18.68
2019-03-18T20:45:20.934Z,18.69
2019-03-18T20:48:26.922Z,18.47
2019-03-18T20:51:32.808Z,18.27
2019-03-18T20:54:41.501Z,18.32
2019-03-18T20:57:48.063Z,18.63
2019-03-18T21:00:55.127Z,18.41
2019-03-18T21:04:00.861Z,17.98
2019-03-18T21:07:07.698Z,17.91
2019-03-18T21:10:13.539Z,17.62
2019-03-18T21:13:19.262Z,17.54
2019-03-18T21:16:25.147Z,17.53
2019-03-18T21:19:30.895Z,17.73
2019-03-18T21:22:36.705Z,17.68
2019-03-18T21:25:42.539Z,17.57
2019-03-18T21:28:48.264Z,17.77
2019-03-18T21:31:54.038Z,17.92
2019-03-18T21:34:59.784Z,17.93
2019-03-18T21:38:05.943Z,17.87
2019-03-18T21:41:11.678Z,17.79
2019-03-18T21:44:17.512Z,17.64
2019-03-18T21:47:23.280Z,17.66
2019-03-18T21:50:29.120Z,17.55
2019-03-18T21:53:35.043Z,17.25
2019-03-18T21:56:40.853Z,17.56
2019-03-18T21:59:46.585Z,17.83
2019-03-18T22:02:52.513Z,17.79
2019-03-18T22:06:00.753Z,17.89
2019-03-18T22:09:07.328Z,17.29
2019-03-18T22:12:13.092Z,17.50
2019-03-18T22:15:19.070Z,17.64
2019-03-18T22:18:24.830Z,17.13
2019-03-18T22:21:30.573Z,17.28
2019-03-18T22:24:44.722Z,17.02
2019-03-18T22:27:44.121Z,17.30
2019-03-18T22:30:49.842Z,17.23
2019-03-18T22:33:55.694Z,17.20
2019-03-18T22:37:01.435Z,17.24
2019-03-18T22:40:07.311Z,17.20
2019-03-18T22:43:13.050Z,17.10
2019-03-18T22:46:18.809Z,17.44
2019-03-18T22:49:24.548Z,17.33
2019-03-18T22:52:30.555Z,17.26
2019-03-18T22:55:36.442Z,16.74
2019-03-18T22:58:42.182Z,17.22
2019-03-18T23:01:47.910Z,17.25
2019-03-18T23:04:53.638Z,16.79
2019-03-18T23:08:00.453Z,17.25
2019-03-18T23:11:06.325Z,17.03
2019-03-18T23:14:12.084Z,17.26
2019-03-18T23:17:17.867Z,16.91
2019-03-18T23:20:23.697Z,17.06
2019-03-18T23:23:29.578Z,17.07
2019-03-18T23:26:35.312Z,17.29
2019-03-18T23:29:41.109Z,17.48
2019-03-18T23:32:46.861Z,17.39
2019-03-18T23:35:52.634Z,17.27
2019-03-18T23:38:58.727Z,17.21
2019-03-18T23:42:04.769Z,17.56
2019-03-18T23:45:11.295Z,17.45
2019-03-18T23:48:17.018Z,17.37
2019-03-18T23:51:22.782Z,17.38
2019-03-18T23:54:28.509Z,17.37
2019-03-18T23:57:34.416Z,17.31
